createdAt,value
2019-05-30T00:01:08.307Z,16.85
2019-05-30T00:06:09.711Z,17.50
2019-05-30T00:11:11.538Z,17.17
2019-05-30T00:16:13.048Z,15.18
2019-05-30T00:21:14.543Z,15.88
2019-05-30T00:26:15.907Z,17.90
2019-05-30T00:31:17.428Z,14.93
2019-05-30T00:36:18.839Z,13.65
2019-05-30T00:41:20.220Z,20.60
2019-05-30T00:46:21.771Z,16.00
2019-05-30T00:51:23.276Z,16.90
2019-05-30T00:56:24.830Z,14.43
2019-05-30T01:01:26.361Z,7.22
2019-05-30T01:06:27.866Z,8.60
2019-05-30T01:11:29.361Z,6.87
2019-05-30T01:16:30.892Z,4.60
2019-05-30T01:21:32.334Z,6.67
2019-05-30T01:26:33.853Z,6.60
2019-05-30T01:31:35.389Z,3.85
2019-05-30T01:36:36.871Z,5.23
2019-05-30T01:41:38.622Z,5.20
2019-05-30T01:46:40.039Z,10.83
2019-05-30T01:51:41.557Z,4.97
2019-05-30T01:56:43.102Z,8.50
2019-05-30T02:01:44.653Z,5.67
2019-05-30T02:06:46.160Z,5.85
2019-05-30T02:11:47.568Z,5.85
2019-05-30T02:16:49.092Z,9.27
2019-05-30T02:21:50.643Z,5.83
2019-05-30T02:26:51.968Z,6.73
2019-05-30T02:31:53.512Z,7.35
2019-05-30T02:36:55.025Z,8.17
2019-05-30T02:41:56.517Z,11.13
2019-05-30T02:46:58.042Z,9.60
2019-05-30T02:51:59.583Z,7.23
2019-05-30T02:57:01.522Z,8.90
2019-05-30T03:02:07.345Z,5.57
2019-05-30T03:07:08.481Z,7.90
2019-05-30T03:12:11.453Z,7.50
2019-05-30T03:17:14.653Z,6.10
2019-05-30T03:22:16.435Z,9.10
2019-05-30T03:27:17.953Z,13.50
2019-05-30T03:33:00.858Z,9.27
2019-05-30T03:37:29.373Z,11.30
2019-05-30T03:42:26.411Z,9.83
2019-05-30T03:47:27.907Z,10.90
2019-05-30T03:52:29.429Z,10.33
2019-05-30T03:57:33.357Z,13.03
2019-05-30T04:02:59.256Z,10.23
2019-05-30T04:08:00.508Z,12.03
2019-05-30T04:13:15.258Z,12.67
2019-05-30T04:18:17.152Z,14.43
2019-05-30T04:23:19.484Z,13.40
2019-05-30T04:28:21.249Z,14.60
2019-05-30T04:33:32.715Z,16.07
2019-05-30T04:38:26.242Z,16.67
2019-05-30T04:43:27.732Z,17.93
2019-05-30T04:48:29.242Z,20.95
2019-05-30T04:53:30.742Z,15.70
2019-05-30T04:58:32.447Z,16.63
2019-05-30T05:03:44.958Z,17.50
2019-05-30T05:08:37.439Z,18.52
2019-05-30T05:13:39.340Z,19.50
2019-05-30T05:18:40.883Z,24.07
2019-05-30T05:23:42.439Z,22.20
2019-05-30T05:28:44.055Z,20.67
2019-05-30T05:33:56.153Z,20.92
2019-05-30T05:38:49.060Z,23.63
2019-05-30T05:43:50.554Z,19.30
2019-05-30T05:48:52.082Z,24.82
2019-05-30T05:53:53.734Z,23.50
2019-05-30T05:58:55.213Z,26.10
2019-05-30T06:04:11.962Z,23.93
2019-05-30T06:09:00.389Z,23.62
2019-05-30T06:14:01.953Z,27.17
2019-05-30T06:19:03.434Z,25.62
2019-05-30T06:24:04.998Z,27.32
2019-05-30T06:29:06.792Z,23.20
2019-05-30T06:34:08.404Z,26.17
2019-05-30T06:39:09.935Z,25.17
2019-05-30T06:44:11.594Z,23.85
2019-05-30T06:49:13.226Z,31.03
2019-05-30T06:54:14.649Z,25.17
2019-05-30T06:59:16.211Z,29.20
2019-05-30T07:04:18.300Z,31.33
2019-05-30T07:09:20.141Z,35.85
2019-05-30T07:14:23.035Z,30.88
2019-05-30T07:19:25.325Z,33.35
2019-05-30T07:24:27.752Z,29.27
2019-05-30T07:29:29.981Z,29.55
2019-05-30T07:34:32.622Z,29.07
2019-05-30T07:39:37.315Z,31.80
2019-05-30T07:44:37.695Z,29.82
2019-05-30T07:49:39.221Z,31.75
2019-05-30T07:54:40.816Z,31.35
2019-05-30T07:59:42.359Z,31.77
2019-05-30T08:04:46.903Z,35.65
2019-05-30T08:09:47.585Z,31.02
2019-05-30T08:14:49.111Z,34.98
2019-05-30T08:19:50.629Z,34.27
2019-05-30T08:24:51.982Z,30.32
2019-05-30T08:29:53.481Z,34.30
2019-05-30T08:34:55.014Z,33.08
2019-05-30T08:39:56.566Z,27.82
2019-05-30T08:44:58.130Z,27.87
2019-05-30T08:49:59.647Z,30.32
2019-05-30T08:55:01.367Z,30.35
2019-05-30T09:00:03.977Z,28.55
2019-05-30T09:05:07.015Z,25.92
2019-05-30T09:10:08.842Z,23.75
2019-05-30T09:15:10.893Z,23.15
2019-05-30T09:20:12.400Z,22.32
2019-05-30T09:25:13.988Z,19.37
2019-05-30T09:30:15.507Z,15.38
2019-05-30T09:35:17.129Z,18.23
2019-05-30T09:40:19.327Z,13.78
2019-05-30T09:45:21.072Z,14.13
2019-05-30T09:50:22.481Z,15.50
2019-05-30T09:55:24.051Z,14.65
2019-05-30T10:00:25.552Z,19.10
2019-05-30T10:05:27.105Z,18.65
2019-05-30T10:10:28.604Z,17.48
2019-05-30T10:15:30.027Z,17.20
2019-05-30T10:20:31.676Z,14.33
2019-05-30T10:25:33.245Z,15.20
2019-05-30T10:30:34.798Z,20.35
2019-05-30T10:35:36.439Z,16.40
2019-05-30T10:40:38.034Z,19.25
2019-05-30T10:45:39.565Z,21.05
2019-05-30T10:50:41.108Z,22.20
2019-05-30T10:55:42.513Z,21.70
2019-05-30T11:00:48.452Z,26.50
2019-05-30T11:06:13.680Z,31.95
2019-05-30T11:11:15.272Z,30.27
2019-05-30T11:16:16.780Z,33.48
2019-05-30T11:21:18.289Z,38.53
2019-05-30T11:26:19.773Z,48.58
2019-05-30T11:31:21.189Z,43.40
2019-05-30T11:36:22.706Z,42.33
2019-05-30T11:41:24.274Z,40.23
2019-05-30T11:46:25.815Z,37.70
2019-05-30T11:51:27.325Z,39.65
2019-05-30T11:56:28.821Z,32.53
2019-05-30T12:01:30.344Z,34.18
2019-05-30T12:06:31.850Z,29.42
2019-05-30T12:11:33.343Z,27.40
2019-05-30T12:16:34.969Z,26.65
2019-05-30T12:21:36.430Z,23.05
2019-05-30T12:26:37.937Z,21.37
2019-05-30T12:31:39.423Z,19.32
2019-05-30T12:36:41.002Z,14.60
2019-05-30T12:41:42.539Z,13.30
2019-05-30T12:46:44.134Z,13.62
2019-05-30T12:51:45.665Z,9.25
2019-05-30T12:56:47.187Z,9.70
2019-05-30T13:01:48.710Z,11.88
2019-05-30T13:06:53.851Z,9.48
2019-05-30T13:11:54.270Z,11.85
2019-05-30T13:16:55.914Z,9.33
2019-05-30T13:21:57.373Z,8.48
2019-05-30T13:26:59.656Z,8.63
2019-05-30T13:32:02.533Z,12.58
2019-05-30T13:37:05.074Z,8.03
2019-05-30T13:42:07.869Z,8.00
2019-05-30T13:47:09.467Z,6.30
2019-05-30T13:52:10.962Z,8.18
2019-05-30T13:57:12.586Z,5.78
2019-05-30T14:02:14.134Z,6.92
2019-05-30T14:07:15.659Z,6.62
2019-05-30T14:12:17.148Z,4.67
2019-05-30T14:17:18.593Z,6.95
2019-05-30T14:22:20.100Z,3.87
2019-05-30T14:27:21.788Z,3.90
2019-05-30T14:32:23.440Z,3.75
2019-05-30T14:37:24.951Z,6.62
2019-05-30T14:42:26.531Z,3.37
2019-05-30T14:47:28.025Z,2.65
2019-05-30T14:52:29.898Z,5.30
2019-05-30T14:57:31.473Z,2.77
2019-05-30T15:02:33.104Z,2.83
2019-05-30T15:07:34.623Z,1.95
2019-05-30T15:12:36.074Z,6.58
2019-05-30T15:17:37.599Z,2.10
2019-05-30T15:22:39.093Z,2.85
2019-05-30T15:27:40.608Z,2.17
2019-05-30T15:32:42.236Z,2.65
2019-05-30T15:37:43.662Z,6.50
2019-05-30T15:42:45.291Z,3.05
2019-05-30T15:47:46.681Z,3.15
2019-05-30T15:52:48.568Z,2.17
2019-05-30T15:57:50.018Z,2.00
2019-05-30T16:02:51.544Z,2.90
2019-05-30T16:07:53.153Z,4.75
2019-05-30T16:12:54.796Z,2.17
2019-05-30T16:17:56.390Z,4.72
2019-05-30T16:22:57.981Z,6.53
2019-05-30T16:27:59.391Z,2.50
2019-05-30T16:33:00.902Z,2.47
2019-05-30T16:38:02.430Z,3.75
2019-05-30T16:43:03.871Z,3.08
2019-05-30T16:48:05.340Z,3.92
2019-05-30T16:53:06.873Z,6.65
2019-05-30T16:58:08.493Z,7.58
2019-05-30T17:03:09.948Z,3.60
2019-05-30T17:08:11.612Z,3.80
2019-05-30T17:13:12.864Z,7.12
2019-05-30T17:18:14.395Z,4.33
2019-05-30T17:23:16.743Z,5.50
2019-05-30T17:28:18.388Z,3.58
2019-05-30T17:33:21.762Z,5.72
2019-05-30T17:38:24.540Z,9.98
2019-05-30T17:43:27.141Z,5.58
2019-05-30T17:48:29.777Z,8.35
2019-05-30T17:53:31.597Z,8.35
2019-05-30T17:58:33.085Z,9.73
2019-05-30T18:03:34.628Z,9.45
2019-05-30T18:08:36.207Z,12.40
2019-05-30T18:13:37.760Z,13.05
2019-05-30T18:18:39.286Z,11.83
2019-05-30T18:23:40.858Z,10.25
2019-05-30T18:28:42.253Z,9.55
2019-05-30T18:33:44.232Z,8.55
2019-05-30T18:38:45.798Z,10.82
2019-05-30T18:43:47.425Z,8.53
2019-05-30T18:48:49.064Z,7.75
2019-05-30T18:53:50.744Z,8.88
2019-05-30T18:58:52.353Z,9.15
2019-05-30T19:03:53.952Z,9.95
2019-05-30T19:08:56.546Z,10.68
2019-05-30T19:13:58.090Z,8.25
2019-05-30T19:18:59.629Z,11.03
2019-05-30T19:24:01.122Z,9.08
2019-05-30T19:29:03.684Z,12.50
2019-05-30T19:34:05.296Z,11.03
2019-05-30T19:39:06.934Z,9.95
2019-05-30T19:44:08.439Z,11.30
2019-05-30T19:49:09.758Z,11.45
2019-05-30T19:54:11.278Z,7.28
2019-05-30T19:59:12.800Z,13.08
2019-05-30T20:04:14.323Z,10.80
2019-05-30T20:09:15.864Z,13.13
2019-05-30T20:14:17.367Z,8.73
2019-05-30T20:19:18.986Z,10.82
2019-05-30T20:24:20.383Z,11.00
2019-05-30T20:29:22.098Z,10.98
2019-05-30T20:34:23.586Z,13.30
2019-05-30T20:39:25.097Z,8.48
2019-05-30T20:44:26.580Z,9.10
2019-05-30T20:49:28.439Z,9.98
2019-05-30T20:54:29.967Z,10.10
2019-05-30T20:59:31.514Z,7.62
2019-05-30T21:04:32.974Z,9.50
2019-05-30T21:09:35.859Z,5.03
2019-05-30T21:14:37.577Z,4.72
2019-05-30T21:19:39.805Z,8.73
2019-05-30T21:24:42.668Z,5.00
2019-05-30T21:29:45.745Z,6.28
2019-05-30T21:34:48.588Z,4.65
2019-05-30T21:39:50.408Z,6.10
2019-05-30T21:44:52.856Z,6.60
2019-05-30T21:49:54.575Z,6.15
2019-05-30T21:54:55.908Z,7.65
2019-05-30T21:59:57.377Z,6.28
2019-05-30T22:04:58.839Z,6.40
2019-05-30T22:10:00.378Z,8.93
2019-05-30T22:15:01.899Z,8.93
2019-05-30T22:20:04.162Z,7.47
2019-05-30T22:25:05.700Z,7.20
2019-05-30T22:30:07.538Z,5.65
2019-05-30T22:35:09.016Z,6.87
2019-05-30T22:40:10.557Z,8.98
2019-05-30T22:45:12.044Z,4.28
2019-05-30T22:50:13.494Z,4.53
2019-05-30T22:55:15.118Z,6.12
2019-05-30T23:00:16.596Z,9.43
2019-05-30T23:05:18.116Z,5.03
2019-05-30T23:10:19.639Z,8.43
2019-05-30T23:15:21.064Z,8.55
2019-05-30T23:20:22.553Z,6.20
2019-05-30T23:25:24.097Z,7.55
2019-05-30T23:30:25.737Z,6.17
2019-05-30T23:35:27.344Z,5.97
2019-05-30T23:40:28.879Z,5.97
2019-05-30T23:45:30.831Z,7.47
2019-05-30T23:50:32.471Z,7.30
2019-05-30T23:55:34.284Z,10.70
